»·PEaware :: N908KA EDDH-EHAM

N908KA :: EDDH-EHAM

FLIGHT INFORMATION

Flight Status: Arrived
Operator: Privately registered:
United States
More flights under this callsign
Pilot: Steven W. (36)
Aircraft: CESSNA 208 CARAVAN
(C208)
More flights by this aircraft type
Origin: EDDH Hamburg
Germany
Destination: EHAM Schiphol
Netherlands
More flights between these airports :: More routes between these airports
Route: LBE N125 EEL N872 PAM SPL
File this flight plan on PilotEdge
Remarks: TEST FLIGHT FOR ANW
Altitude:
(Current/Filed)
6,000ft
Speed:
(Current/Filed)
180kts
Departed: 02-Oct-13 05:46 PM
Arrived: 02-Oct-13 07:19 PM
Distance/Time
Traveled:
204nm/1:33
Distance/Time
To Go:
Arrived

Flight Plot

Page will automatically refresh every two minutes.


Map Options




Map Legend


Flown Route
Filed Route
Departure Airport
Arrival Airport
Navaid (VOR, NDB)
Fix

Horizontal Profiles

Position Reports

Time Latitude Longitude Heading Altitude Ground
Speed
02-Oct-13 17:23 53.626205 9.988975 64 57ft 0kts
02-Oct-13 17:24 53.626205 9.988975 64 57ft 0kts
02-Oct-13 17:25 53.626205 9.988975 64 57ft 0kts
02-Oct-13 17:26 53.626205 9.988975 64 57ft 0kts
02-Oct-13 17:27 53.626205 9.988975 64 57ft 0kts
02-Oct-13 17:28 53.626205 9.988975 64 57ft 0kts
02-Oct-13 17:29 53.626150 9.989972 241 58ft 0kts
02-Oct-13 17:30 53.626150 9.989972 241 58ft 0kts
02-Oct-13 17:31 53.626150 9.989972 241 58ft 0kts
02-Oct-13 17:32 53.626150 9.989972 241 58ft 0kts
02-Oct-13 17:33 53.626150 9.989972 241 58ft 0kts
02-Oct-13 17:34 53.626140 9.989458 180 58ft 5kts
02-Oct-13 17:35 53.626111 9.989468 143 58ft 0kts
02-Oct-13 17:36 53.626111 9.989468 143 58ft 0kts
02-Oct-13 17:37 53.626111 9.989468 143 58ft 0kts
02-Oct-13 17:38 53.626098 9.989484 141 58ft 2kts
02-Oct-13 17:39 53.625010 9.985755 259 58ft 14kts
02-Oct-13 17:40 53.624432 9.981305 232 58ft 1kts
02-Oct-13 17:41 53.622594 9.977480 229 58ft 12kts
02-Oct-13 17:42 53.622681 9.973649 358 58ft 1kts
02-Oct-13 17:43 53.632230 9.989878 48 439ft 95kts
02-Oct-13 17:44 53.656507 9.990767 277 1164ft 115kts
02-Oct-13 17:45 53.639684 9.950949 217 2221ft 107kts
02-Oct-13 17:46 53.638309 9.904535 274 3401ft 104kts
02-Oct-13 17:47 53.641257 9.862176 274 4404ft 112kts
02-Oct-13 17:48 53.645025 9.808617 274 5603ft 97kts
02-Oct-13 17:49 53.648071 9.763375 274 6066ft 133kts
02-Oct-13 17:50 53.652620 9.694340 275 6288ft 163kts
02-Oct-13 17:51 53.657755 9.615698 275 6286ft 171kts
02-Oct-13 17:52 53.645740 9.543223 228 6288ft 166kts
02-Oct-13 17:53 53.617870 9.481648 228 6287ft 166kts
02-Oct-13 17:54 53.589886 9.419793 228 6286ft 165kts
02-Oct-13 17:55 53.561799 9.357952 228 6286ft 167kts
02-Oct-13 17:56 53.532782 9.301182 226 6274ft 168kts
02-Oct-13 17:57 53.504592 9.240102 229 6259ft 169kts
02-Oct-13 17:58 53.477627 9.178021 229 6242ft 161kts
02-Oct-13 17:59 53.451822 9.117970 229 6229ft 158kts
02-Oct-13 18:00 53.426477 9.059019 230 6267ft 155kts
02-Oct-13 18:01 53.402880 9.004086 230 6273ft 156kts
02-Oct-13 18:02 53.377509 8.945195 230 6273ft 154kts
02-Oct-13 18:03 53.352491 8.886854 231 6272ft 154kts
02-Oct-13 18:04 53.343854 8.815805 259 6272ft 157kts
02-Oct-13 18:05 53.338337 8.743406 260 6271ft 157kts
02-Oct-13 18:06 53.332800 8.670508 260 6271ft 157kts
02-Oct-13 18:07 53.327215 8.597378 260 6272ft 157kts
02-Oct-13 18:08 53.321603 8.524427 260 6272ft 158kts
02-Oct-13 18:09 53.315940 8.451621 260 6272ft 158kts
02-Oct-13 18:10 53.310219 8.378681 260 6272ft 158kts
02-Oct-13 18:11 53.304504 8.306170 260 6272ft 158kts
02-Oct-13 18:12 53.298702 8.233330 260 6272ft 158kts
02-Oct-13 18:13 53.292859 8.160383 260 6272ft 158kts
02-Oct-13 18:14 53.286931 8.087259 260 6272ft 158kts
02-Oct-13 18:15 53.281001 8.014499 260 6273ft 158kts
02-Oct-13 18:16 53.275015 7.941528 260 6273ft 158kts
02-Oct-13 18:17 53.269412 7.870058 260 6271ft 158kts
02-Oct-13 18:18 53.263797 7.797078 259 6271ft 158kts
02-Oct-13 18:19 53.257817 7.724490 259 6271ft 158kts
02-Oct-13 18:20 53.251687 7.651592 259 6272ft 158kts
02-Oct-13 18:21 53.245541 7.579005 259 6272ft 158kts
02-Oct-13 18:22 53.239305 7.506044 259 6272ft 158kts
02-Oct-13 18:23 53.218888 7.445293 227 6272ft 153kts
02-Oct-13 18:24 53.203603 7.380734 267 6272ft 158kts
02-Oct-13 18:25 53.202776 7.307037 267 6272ft 159kts
02-Oct-13 18:26 53.201896 7.233278 267 6272ft 159kts
02-Oct-13 18:27 53.198482 7.159927 261 6272ft 158kts
02-Oct-13 18:28 53.193142 7.086803 261 6272ft 158kts
02-Oct-13 18:29 53.187767 7.014082 261 6273ft 158kts
02-Oct-13 18:30 53.182279 6.941154 260 6273ft 158kts
02-Oct-13 18:31 53.176916 6.868260 260 6271ft 158kts
02-Oct-13 18:32 53.171819 6.795182 260 6271ft 158kts
02-Oct-13 18:33 53.166670 6.722170 260 6271ft 158kts
02-Oct-13 18:34 53.156725 6.652316 228 6273ft 153kts
02-Oct-13 18:35 53.129498 6.598217 225 6272ft 153kts
02-Oct-13 18:36 53.106699 6.553765 225 6006ft 162kts
02-Oct-13 18:37 53.078244 6.498365 225 6001ft 155kts
02-Oct-13 18:38 53.050339 6.444035 225 6002ft 154kts
02-Oct-13 18:39 53.022487 6.389922 225 6002ft 153kts
02-Oct-13 18:40 52.994738 6.336065 225 6002ft 153kts
02-Oct-13 18:41 52.966980 6.282435 225 6002ft 153kts
02-Oct-13 18:42 52.939090 6.228719 225 6002ft 153kts
02-Oct-13 18:43 52.911093 6.174973 225 6002ft 153kts
02-Oct-13 18:44 52.883080 6.121423 225 6002ft 153kts
02-Oct-13 18:45 52.854987 6.067936 225 6002ft 154kts
02-Oct-13 18:46 52.826830 6.014507 225 6002ft 154kts
02-Oct-13 18:47 52.798874 5.961550 225 6002ft 154kts
02-Oct-13 18:48 52.784610 5.934575 225 6002ft 154kts
02-Oct-13 18:49 52.774576 5.915619 225 6002ft 154kts
02-Oct-13 18:50 52.746661 5.862064 225 6001ft 153kts
02-Oct-13 18:51 52.718912 5.808389 225 6001ft 153kts
02-Oct-13 18:52 52.691034 5.754649 225 6001ft 153kts
02-Oct-13 18:53 52.663395 5.701573 224 6001ft 153kts
02-Oct-13 18:54 52.640143 5.657073 224 6001ft 153kts
02-Oct-13 18:55 52.607461 5.594744 224 6001ft 153kts
02-Oct-13 18:56 52.584142 5.550331 224 6001ft 153kts
02-Oct-13 18:57 52.551515 5.488204 225 6001ft 154kts
02-Oct-13 18:58 52.527390 5.445391 222 6001ft 153kts
02-Oct-13 18:59 52.498883 5.395052 222 6001ft 153kts
02-Oct-13 19:00 52.470258 5.344513 222 6002ft 153kts
02-Oct-13 19:01 52.442116 5.294878 222 6002ft 153kts
02-Oct-13 19:02 52.413399 5.244499 222 6002ft 153kts
02-Oct-13 19:03 52.385602 5.195941 222 6002ft 154kts
02-Oct-13 19:04 52.356950 5.145962 222 6002ft 154kts
02-Oct-13 19:05 52.336598 5.110542 222 6002ft 154kts
02-Oct-13 19:06 52.336598 5.110542 222 6002ft 154kts
02-Oct-13 19:07 52.326006 5.092133 222 6002ft 154kts
02-Oct-13 19:08 52.303720 5.053484 222 6003ft 154kts
02-Oct-13 19:09 52.290401 5.000773 264 4754ft 176kts
02-Oct-13 19:10 52.296902 4.929228 285 3062ft 153kts
02-Oct-13 19:11 52.313118 4.868515 299 1599ft 136kts
02-Oct-13 19:12 52.327472 4.817475 283 1335ft 120kts
02-Oct-13 19:13 52.329109 4.762016 267 1021ft 124kts
02-Oct-13 19:14 52.325379 4.714632 176 937ft 98kts
02-Oct-13 19:15 52.316534 4.741068 88 386ft 77kts
02-Oct-13 19:16 52.317239 4.765397 89 -5ft 24kts
02-Oct-13 19:17 52.315992 4.771292 113 -5ft 14kts
02-Oct-13 19:18 52.315522 4.774859 1 -5ft 0kts
02-Oct-13 19:19 52.315522 4.774859 1 -5ft 0kts
02-Oct-13 19:20 52.315522 4.774859 1 -5ft 0kts
02-Oct-13 19:21 52.315522 4.774859 1 -5ft 0kts
02-Oct-13 19:22 52.315522 4.774859 1 -5ft 0kts
02-Oct-13 19:23 52.315522 4.774859 1 -5ft 0kts
02-Oct-13 19:24 52.315522 4.774859 1 -5ft 0kts
02-Oct-13 19:25 52.315522 4.774859 1 -5ft 0kts
02-Oct-13 19:26 52.315522 4.774859 1 -5ft 0kts
02-Oct-13 19:27 52.315522 4.774859 1 -5ft 0kts
02-Oct-13 19:28 52.315522 4.774859 1 -5ft 0kts
02-Oct-13 19:29 52.315522 4.774859 1 -5ft 0kts
02-Oct-13 19:30 52.315522 4.774859 1 -5ft 0kts
02-Oct-13 19:31 52.315522 4.774859 1 -5ft 0kts

Navigation Log

Ident Type
Flight plan parsing failed, navigation log unavailable